sensor_id;sensor_type;location;lat;lon;timestamp;temperature;humidity
65559;DHT22;52203;51.998;5.140;2023-07-13T00:00:13;11.79;118.99
65559;DHT22;52203;51.998;5.140;2023-07-13T00:02:42;11.74;118.99
65559;DHT22;52203;51.998;5.140;2023-07-13T00:05:08;11.74;118.99
65559;DHT22;52203;51.998;5.140;2023-07-13T00:07:35;11.72;118.99
65559;DHT22;52203;51.998;5.140;2023-07-13T00:10:01;11.69;118.99
65559;DHT22;52203;51.998;5.140;2023-07-13T00:12:33;11.46;118.99
65559;DHT22;52203;51.998;5.140;2023-07-13T00:15:01;11.18;118.99
65559;DHT22;52203;51.998;5.140;2023-07-13T00:17:27;11.15;118.99
65559;DHT22;52203;51.998;5.140;2023-07-13T00:19:53;11.04;118.99
65559;DHT22;52203;51.998;5.140;2023-07-13T00:22:19;11.01;118.99
65559;DHT22;52203;51.998;5.140;2023-07-13T00:24:45;11.00;118.99
65559;DHT22;52203;51.998;5.140;2023-07-13T00:27:11;10.98;118.99
65559;DHT22;52203;51.998;5.140;2023-07-13T00:29:37;10.97;118.99
65559;DHT22;52203;51.998;5.140;2023-07-13T00:32:04;10.99;118.99
65559;DHT22;52203;51.998;5.140;2023-07-13T00:34:30;10.97;118.99
65559;DHT22;52203;51.998;5.140;2023-07-13T00:36:56;10.96;118.99
65559;DHT22;52203;51.998;5.140;2023-07-13T00:39:21;10.93;118.99
65559;DHT22;52203;51.998;5.140;2023-07-13T00:41:48;10.87;118.99
65559;DHT22;52203;51.998;5.140;2023-07-13T00:44:15;10.86;118.99
65559;DHT22;52203;51.998;5.140;2023-07-13T00:46:41;10.84;118.99
65559;DHT22;52203;51.998;5.140;2023-07-13T00:49:09;10.82;118.99
65559;DHT22;52203;51.998;5.140;2023-07-13T00:54:26;10.79;118.99
65559;DHT22;52203;51.998;5.140;2023-07-13T00:56:55;10.77;118.99
65559;DHT22;52203;51.998;5.140;2023-07-13T00:59:24;10.75;118.99
65559;DHT22;52203;51.998;5.140;2023-07-13T01:01:49;10.73;118.99
65559;DHT22;52203;51.998;5.140;2023-07-13T01:04:16;10.72;118.99
65559;DHT22;52203;51.998;5.140;2023-07-13T01:06:42;10.71;118.99
65559;DHT22;52203;51.998;5.140;2023-07-13T01:09:09;10.71;118.99
65559;DHT22;52203;51.998;5.140;2023-07-13T01:11:35;10.71;118.99
65559;DHT22;52203;51.998;5.140;2023-07-13T01:14:01;10.73;118.99
65559;DHT22;52203;51.998;5.140;2023-07-13T01:16:32;10.74;118.99
65559;DHT22;52203;51.998;5.140;2023-07-13T01:18:58;10.78;118.99
65559;DHT22;52203;51.998;5.140;2023-07-13T01:21:25;10.77;118.99
65559;DHT22;52203;51.998;5.140;2023-07-13T01:23:51;10.79;118.99
65559;DHT22;52203;51.998;5.140;2023-07-13T01:26:17;10.77;118.99
65559;DHT22;52203;51.998;5.140;2023-07-13T01:28:43;10.74;118.99
65559;DHT22;52203;51.998;5.140;2023-07-13T01:31:09;10.70;118.99
65559;DHT22;52203;51.998;5.140;2023-07-13T01:33:39;10.67;118.99
65559;DHT22;52203;51.998;5.140;2023-07-13T01:36:09;10.65;118.99
65559;DHT22;52203;51.998;5.140;2023-07-13T01:38:36;10.58;118.99
65559;DHT22;52203;51.998;5.140;2023-07-13T01:41:02;10.55;118.99
65559;DHT22;52203;51.998;5.140;2023-07-13T01:43:28;10.51;118.99
65559;DHT22;52203;51.998;5.140;2023-07-13T01:45:54;10.46;118.99
65559;DHT22;52203;51.998;5.140;2023-07-13T01:48:19;10.43;118.99
65559;DHT22;52203;51.998;5.140;2023-07-13T01:50:45;10.40;118.99
65559;DHT22;52203;51.998;5.140;2023-07-13T01:53:11;10.37;118.99
65559;DHT22;52203;51.998;5.140;2023-07-13T01:55:37;10.37;118.99
65559;DHT22;52203;51.998;5.140;2023-07-13T01:58:03;10.37;118.99
65559;DHT22;52203;51.998;5.140;2023-07-13T02:00:29;10.35;118.99
65559;DHT22;52203;51.998;5.140;2023-07-13T02:02:55;10.33;118.99
65559;DHT22;52203;51.998;5.140;2023-07-13T02:05:20;10.33;118.99
65559;DHT22;52203;51.998;5.140;2023-07-13T02:07:46;10.30;118.99
65559;DHT22;52203;51.998;5.140;2023-07-13T02:10:12;10.31;118.99
65559;DHT22;52203;51.998;5.140;2023-07-13T02:12:37;10.28;118.99
65559;DHT22;52203;51.998;5.140;2023-07-13T02:15:04;10.26;118.99
65559;DHT22;52203;51.998;5.140;2023-07-13T02:17:30;10.25;118.99
65559;DHT22;52203;51.998;5.140;2023-07-13T02:19:56;10.20;118.99
65559;DHT22;52203;51.998;5.140;2023-07-13T02:22:22;10.18;118.99
65559;DHT22;52203;51.998;5.140;2023-07-13T02:24:48;10.15;118.99
65559;DHT22;52203;51.998;5.140;2023-07-13T02:27:14;10.11;118.99
65559;DHT22;52203;51.998;5.140;2023-07-13T02:29:39;10.10;118.99
65559;DHT22;52203;51.998;5.140;2023-07-13T02:32:05;10.07;118.99
65559;DHT22;52203;51.998;5.140;2023-07-13T02:34:31;10.06;118.99
65559;DHT22;52203;51.998;5.140;2023-07-13T02:36:56;10.03;118.99
65559;DHT22;52203;51.998;5.140;2023-07-13T02:39:22;10.00;118.99
65559;DHT22;52203;51.998;5.140;2023-07-13T02:41:47;9.99;118.99
65559;DHT22;52203;51.998;5.140;2023-07-13T02:44:14;9.97;118.99
65559;DHT22;52203;51.998;5.140;2023-07-13T02:46:40;9.96;118.99
65559;DHT22;52203;51.998;5.140;2023-07-13T02:49:06;9.95;118.99
65559;DHT22;52203;51.998;5.140;2023-07-13T02:51:32;9.95;118.99
65559;DHT22;52203;51.998;5.140;2023-07-13T02:54:03;9.93;118.99
65559;DHT22;52203;51.998;5.140;2023-07-13T02:56:30;9.90;118.99
65559;DHT22;52203;51.998;5.140;2023-07-13T02:58:56;9.89;118.99
65559;DHT22;52203;51.998;5.140;2023-07-13T03:01:22;9.89;118.99
65559;DHT22;52203;51.998;5.140;2023-07-13T03:03:48;9.86;118.99
65559;DHT22;52203;51.998;5.140;2023-07-13T03:06:15;9.83;118.99
65559;DHT22;52203;51.998;5.140;2023-07-13T03:08:42;9.82;118.99
65559;DHT22;52203;51.998;5.140;2023-07-13T03:11:11;9.81;118.99
65559;DHT22;52203;51.998;5.140;2023-07-13T03:13:37;9.80;118.99
65559;DHT22;52203;51.998;5.140;2023-07-13T03:16:04;9.81;118.99
65559;DHT22;52203;51.998;5.140;2023-07-13T03:18:30;9.80;118.99
65559;DHT22;52203;51.998;5.140;2023-07-13T03:20:55;9.78;118.99
65559;DHT22;52203;51.998;5.140;2023-07-13T03:23:21;9.76;118.99
65559;DHT22;52203;51.998;5.140;2023-07-13T03:25:47;9.74;118.99
65559;DHT22;52203;51.998;5.140;2023-07-13T03:28:13;9.74;118.99
65559;DHT22;52203;51.998;5.140;2023-07-13T03:30:40;9.70;118.99
65559;DHT22;52203;51.998;5.140;2023-07-13T03:33:05;9.69;118.99
65559;DHT22;52203;51.998;5.140;2023-07-13T03:35:31;9.66;118.99
65559;DHT22;52203;51.998;5.140;2023-07-13T03:37:58;9.65;118.99
65559;DHT22;52203;51.998;5.140;2023-07-13T03:40:24;9.61;118.99
65559;DHT22;52203;51.998;5.140;2023-07-13T03:42:51;9.60;118.99
65559;DHT22;52203;51.998;5.140;2023-07-13T03:45:17;9.59;118.99
65559;DHT22;52203;51.998;5.140;2023-07-13T03:47:42;9.55;118.99
65559;DHT22;52203;51.998;5.140;2023-07-13T03:50:08;9.60;118.99
65559;DHT22;52203;51.998;5.140;2023-07-13T03:52:34;9.57;118.99
65559;DHT22;52203;51.998;5.140;2023-07-13T03:54:59;9.61;118.99
65559;DHT22;52203;51.998;5.140;2023-07-13T03:57:25;9.59;118.99
65559;DHT22;52203;51.998;5.140;2023-07-13T03:59:51;9.59;118.99
65559;DHT22;52203;51.998;5.140;2023-07-13T04:02:16;9.61;118.99
65559;DHT22;52203;51.998;5.140;2023-07-13T04:04:43;9.61;118.99
65559;DHT22;52203;51.998;5.140;2023-07-13T04:07:09;9.60;118.99
65559;DHT22;52203;51.998;5.140;2023-07-13T04:09:35;9.61;118.99
65559;DHT22;52203;51.998;5.140;2023-07-13T04:12:00;9.64;118.99
65559;DHT22;52203;51.998;5.140;2023-07-13T04:14:26;9.65;118.99
65559;DHT22;52203;51.998;5.140;2023-07-13T04:16:52;9.70;118.99
65559;DHT22;52203;51.998;5.140;2023-07-13T04:19:19;9.71;118.99
65559;DHT22;52203;51.998;5.140;2023-07-13T04:21:45;9.74;118.99
65559;DHT22;52203;51.998;5.140;2023-07-13T04:24:10;9.74;118.99
65559;DHT22;52203;51.998;5.140;2023-07-13T04:26:36;9.77;118.99
65559;DHT22;52203;51.998;5.140;2023-07-13T04:29:04;9.78;118.99
65559;DHT22;52203;51.998;5.140;2023-07-13T04:31:30;9.81;118.99
65559;DHT22;52203;51.998;5.140;2023-07-13T04:33:56;9.83;118.99
65559;DHT22;52203;51.998;5.140;2023-07-13T04:36:22;9.89;118.99
65559;DHT22;52203;51.998;5.140;2023-07-13T04:38:47;9.91;118.99
65559;DHT22;52203;51.998;5.140;2023-07-13T04:41:14;9.95;118.99
65559;DHT22;52203;51.998;5.140;2023-07-13T04:43:41;9.99;118.99
65559;DHT22;52203;51.998;5.140;2023-07-13T04:46:09;10.04;118.99
65559;DHT22;52203;51.998;5.140;2023-07-13T04:48:36;10.12;118.99
65559;DHT22;52203;51.998;5.140;2023-07-13T04:51:03;10.20;118.99
65559;DHT22;52203;51.998;5.140;2023-07-13T04:53:30;10.30;118.99
65559;DHT22;52203;51.998;5.140;2023-07-13T04:55:56;10.44;118.99
65559;DHT22;52203;51.998;5.140;2023-07-13T04:58:22;10.68;118.99
65559;DHT22;52203;51.998;5.140;2023-07-13T05:00:48;10.87;118.99
65559;DHT22;52203;51.998;5.140;2023-07-13T05:03:14;11.01;118.99
65559;DHT22;52203;51.998;5.140;2023-07-13T05:05:39;11.07;118.99
65559;DHT22;52203;51.998;5.140;2023-07-13T05:08:05;10.98;118.99
65559;DHT22;52203;51.998;5.140;2023-07-13T05:10:32;11.04;118.99
65559;DHT22;52203;51.998;5.140;2023-07-13T05:12:58;11.12;118.99
65559;DHT22;52203;51.998;5.140;2023-07-13T05:15:23;11.39;118.99
65559;DHT22;52203;51.998;5.140;2023-07-13T05:17:50;11.73;118.99
65559;DHT22;52203;51.998;5.140;2023-07-13T05:20:17;12.11;118.99
65559;DHT22;52203;51.998;5.140;2023-07-13T05:22:43;12.86;118.99
65559;DHT22;52203;51.998;5.140;2023-07-13T05:25:09;13.06;118.99
65559;DHT22;52203;51.998;5.140;2023-07-13T05:27:35;14.43;118.99
65559;DHT22;52203;51.998;5.140;2023-07-13T05:30:02;13.61;118.99
65559;DHT22;52203;51.998;5.140;2023-07-13T05:32:28;13.63;118.99
65559;DHT22;52203;51.998;5.140;2023-07-13T05:34:54;13.99;118.99
65559;DHT22;52203;51.998;5.140;2023-07-13T05:37:20;14.52;118.99
65559;DHT22;52203;51.998;5.140;2023-07-13T05:39:45;14.42;118.99
65559;DHT22;52203;51.998;5.140;2023-07-13T05:42:11;14.27;118.99
65559;DHT22;52203;51.998;5.140;2023-07-13T05:44:36;14.37;118.99
65559;DHT22;52203;51.998;5.140;2023-07-13T05:47:02;14.63;118.99
65559;DHT22;52203;51.998;5.140;2023-07-13T05:49:28;14.82;118.99
65559;DHT22;52203;51.998;5.140;2023-07-13T05:51:55;14.77;118.99
65559;DHT22;52203;51.998;5.140;2023-07-13T05:54:21;14.34;118.99
65559;DHT22;52203;51.998;5.140;2023-07-13T05:56:47;14.14;118.99
65559;DHT22;52203;51.998;5.140;2023-07-13T05:59:12;13.83;118.99
65559;DHT22;52203;51.998;5.140;2023-07-13T06:01:38;13.38;118.99
65559;DHT22;52203;51.998;5.140;2023-07-13T06:04:04;13.66;118.99
65559;DHT22;52203;51.998;5.140;2023-07-13T06:06:29;13.71;118.99
65559;DHT22;52203;51.998;5.140;2023-07-13T06:08:55;13.65;118.99
65559;DHT22;52203;51.998;5.140;2023-07-13T06:11:23;13.48;118.99
65559;DHT22;52203;51.998;5.140;2023-07-13T06:13:49;13.22;118.99
65559;DHT22;52203;51.998;5.140;2023-07-13T06:16:15;13.20;118.99
65559;DHT22;52203;51.998;5.140;2023-07-13T06:18:41;13.19;118.99
65559;DHT22;52203;51.998;5.140;2023-07-13T06:21:14;13.22;118.99
65559;DHT22;52203;51.998;5.140;2023-07-13T06:23:40;13.30;118.99
65559;DHT22;52203;51.998;5.140;2023-07-13T06:26:07;13.49;118.99
65559;DHT22;52203;51.998;5.140;2023-07-13T06:28:34;13.81;118.99
65559;DHT22;52203;51.998;5.140;2023-07-13T06:30:59;14.30;118.99
65559;DHT22;52203;51.998;5.140;2023-07-13T06:33:26;14.54;118.99
65559;DHT22;52203;51.998;5.140;2023-07-13T06:35:51;15.01;118.99
65559;DHT22;52203;51.998;5.140;2023-07-13T06:38:17;15.14;118.99
65559;DHT22;52203;51.998;5.140;2023-07-13T06:40:43;15.12;118.99
65559;DHT22;52203;51.998;5.140;2023-07-13T06:43:08;15.02;118.99
65559;DHT22;52203;51.998;5.140;2023-07-13T06:45:54;15.11;118.99
65559;DHT22;52203;51.998;5.140;2023-07-13T06:48:27;15.04;118.99
65559;DHT22;52203;51.998;5.140;2023-07-13T06:50:53;14.92;118.99
65559;DHT22;52203;51.998;5.140;2023-07-13T06:53:20;15.17;118.99
65559;DHT22;52203;51.998;5.140;2023-07-13T06:55:46;15.07;118.99
65559;DHT22;52203;51.998;5.140;2023-07-13T06:58:12;15.17;118.99
65559;DHT22;52203;51.998;5.140;2023-07-13T07:00:38;15.46;118.99
65559;DHT22;52203;51.998;5.140;2023-07-13T07:03:05;15.38;118.99
65559;DHT22;52203;51.998;5.140;2023-07-13T07:05:30;15.38;118.99
65559;DHT22;52203;51.998;5.140;2023-07-13T07:07:56;15.18;118.99
65559;DHT22;52203;51.998;5.140;2023-07-13T07:10:22;14.95;118.99
65559;DHT22;52203;51.998;5.140;2023-07-13T07:12:47;14.85;118.99
65559;DHT22;52203;51.998;5.140;2023-07-13T07:15:13;14.64;118.99
65559;DHT22;52203;51.998;5.140;2023-07-13T07:17:39;14.55;118.99
65559;DHT22;52203;51.998;5.140;2023-07-13T07:20:05;14.34;118.99
65559;DHT22;52203;51.998;5.140;2023-07-13T07:22:31;14.13;118.99
65559;DHT22;52203;51.998;5.140;2023-07-13T07:24:57;13.94;118.99
65559;DHT22;52203;51.998;5.140;2023-07-13T07:27:23;13.75;118.99
65559;DHT22;52203;51.998;5.140;2023-07-13T07:29:49;13.58;118.99
65559;DHT22;52203;51.998;5.140;2023-07-13T07:32:15;13.46;118.99
65559;DHT22;52203;51.998;5.140;2023-07-13T07:34:40;13.47;118.99
65559;DHT22;52203;51.998;5.140;2023-07-13T07:37:06;13.21;118.99
65559;DHT22;52203;51.998;5.140;2023-07-13T07:39:32;13.34;118.99
65559;DHT22;52203;51.998;5.140;2023-07-13T07:41:58;13.64;118.99
65559;DHT22;52203;51.998;5.140;2023-07-13T07:44:23;14.06;118.99
65559;DHT22;52203;51.998;5.140;2023-07-13T07:46:49;14.37;118.99
65559;DHT22;52203;51.998;5.140;2023-07-13T07:49:15;14.51;118.99
65559;DHT22;52203;51.998;5.140;2023-07-13T07:51:40;14.65;118.99
65559;DHT22;52203;51.998;5.140;2023-07-13T07:54:06;14.63;118.99
65559;DHT22;52203;51.998;5.140;2023-07-13T07:56:32;14.59;118.99
65559;DHT22;52203;51.998;5.140;2023-07-13T07:58:58;14.53;118.99
65559;DHT22;52203;51.998;5.140;2023-07-13T08:01:23;14.39;118.99
65559;DHT22;52203;51.998;5.140;2023-07-13T08:03:49;14.29;118.99
65559;DHT22;52203;51.998;5.140;2023-07-13T08:06:15;14.15;118.99
65559;DHT22;52203;51.998;5.140;2023-07-13T08:08:41;14.04;118.99
65559;DHT22;52203;51.998;5.140;2023-07-13T08:11:08;13.91;118.99
65559;DHT22;52203;51.998;5.140;2023-07-13T08:13:34;13.76;118.99
65559;DHT22;52203;51.998;5.140;2023-07-13T08:16:00;13.60;118.99
65559;DHT22;52203;51.998;5.140;2023-07-13T08:18:25;13.48;118.99
65559;DHT22;52203;51.998;5.140;2023-07-13T08:20:53;13.36;118.99
65559;DHT22;52203;51.998;5.140;2023-07-13T08:23:21;13.29;118.99
65559;DHT22;52203;51.998;5.140;2023-07-13T08:25:51;13.17;118.99
65559;DHT22;52203;51.998;5.140;2023-07-13T08:28:17;13.08;118.99
65559;DHT22;52203;51.998;5.140;2023-07-13T08:30:43;12.96;118.99
65559;DHT22;52203;51.998;5.140;2023-07-13T08:33:08;12.92;118.99
65559;DHT22;52203;51.998;5.140;2023-07-13T08:35:34;12.85;118.99
65559;DHT22;52203;51.998;5.140;2023-07-13T08:37:59;12.80;118.99
65559;DHT22;52203;51.998;5.140;2023-07-13T08:40:26;12.77;118.99
65559;DHT22;52203;51.998;5.140;2023-07-13T08:42:58;12.77;118.99
65559;DHT22;52203;51.998;5.140;2023-07-13T08:45:30;12.84;118.99
65559;DHT22;52203;51.998;5.140;2023-07-13T08:48:08;14.60;118.99
65559;DHT22;52203;51.998;5.140;2023-07-13T08:50:42;15.21;118.99
65559;DHT22;52203;51.998;5.140;2023-07-13T08:53:13;15.74;118.99
65559;DHT22;52203;51.998;5.140;2023-07-13T08:55:39;16.13;118.99
65559;DHT22;52203;51.998;5.140;2023-07-13T08:58:14;16.51;118.99
65559;DHT22;52203;51.998;5.140;2023-07-13T09:01:18;16.98;118.99
65559;DHT22;52203;51.998;5.140;2023-07-13T09:04:09;16.24;118.99
65559;DHT22;52203;51.998;5.140;2023-07-13T09:09:36;16.99;118.99
65559;DHT22;52203;51.998;5.140;2023-07-13T09:14:53;17.31;118.99
65559;DHT22;52203;51.998;5.140;2023-07-13T09:17:34;17.74;118.99
65559;DHT22;52203;51.998;5.140;2023-07-13T09:20:27;17.73;118.99
65559;DHT22;52203;51.998;5.140;2023-07-13T09:22:55;17.53;118.99
65559;DHT22;52203;51.998;5.140;2023-07-13T09:25:30;17.26;118.99
65559;DHT22;52203;51.998;5.140;2023-07-13T09:28:00;17.16;118.99
65559;DHT22;52203;51.998;5.140;2023-07-13T09:30:39;0.00;118.99
65559;DHT22;52203;51.998;5.140;2023-07-13T09:33:07;16.94;118.99
65559;DHT22;52203;51.998;5.140;2023-07-13T09:35:34;17.11;118.99
65559;DHT22;52203;51.998;5.140;2023-07-13T09:38:15;17.43;118.99
65559;DHT22;52203;51.998;5.140;2023-07-13T09:43:20;17.23;118.99
65559;DHT22;52203;51.998;5.140;2023-07-13T09:45:47;16.70;118.99
65559;DHT22;52203;51.998;5.140;2023-07-13T09:48:14;16.42;118.99
65559;DHT22;52203;51.998;5.140;2023-07-13T09:50:41;16.51;118.99
65559;DHT22;52203;51.998;5.140;2023-07-13T09:53:18;16.37;118.99
65559;DHT22;52203;51.998;5.140;2023-07-13T09:55:46;16.11;118.99
65559;DHT22;52203;51.998;5.140;2023-07-13T09:58:13;15.85;118.99
65559;DHT22;52203;51.998;5.140;2023-07-13T10:00:40;15.97;118.99
65559;DHT22;52203;51.998;5.140;2023-07-13T10:03:17;16.31;118.99
65559;DHT22;52203;51.998;5.140;2023-07-13T10:05:45;16.60;118.99
65559;DHT22;52203;51.998;5.140;2023-07-13T10:08:29;16.61;118.99
65559;DHT22;52203;51.998;5.140;2023-07-13T10:11:21;16.50;118.99
65559;DHT22;52203;51.998;5.140;2023-07-13T10:13:53;16.26;118.99
65559;DHT22;52203;51.998;5.140;2023-07-13T10:16:23;16.27;118.99
65559;DHT22;52203;51.998;5.140;2023-07-13T10:18:53;16.27;118.99
65559;DHT22;52203;51.998;5.140;2023-07-13T10:21:22;16.20;118.99
65559;DHT22;52203;51.998;5.140;2023-07-13T10:23:53;16.14;118.99
65559;DHT22;52203;51.998;5.140;2023-07-13T10:26:26;16.08;118.99
65559;DHT22;52203;51.998;5.140;2023-07-13T10:28:57;16.16;118.99
65559;DHT22;52203;51.998;5.140;2023-07-13T10:31:23;16.29;118.99
65559;DHT22;52203;51.998;5.140;2023-07-13T10:33:49;16.58;118.99
65559;DHT22;52203;51.998;5.140;2023-07-13T10:36:43;16.84;118.99
65559;DHT22;52203;51.998;5.140;2023-07-13T10:39:17;17.24;118.99
65559;DHT22;52203;51.998;5.140;2023-07-13T10:41:45;17.46;118.99
65559;DHT22;52203;51.998;5.140;2023-07-13T10:44:20;17.82;118.99
65559;DHT22;52203;51.998;5.140;2023-07-13T10:46:47;18.02;118.99
65559;DHT22;52203;51.998;5.140;2023-07-13T10:49:13;18.14;118.99
65559;DHT22;52203;51.998;5.140;2023-07-13T10:51:40;18.22;118.99
65559;DHT22;52203;51.998;5.140;2023-07-13T10:56:35;18.54;118.99
65559;DHT22;52203;51.998;5.140;2023-07-13T10:59:23;18.65;118.99
65559;DHT22;52203;51.998;5.140;2023-07-13T11:02:06;18.43;118.99
65559;DHT22;52203;51.998;5.140;2023-07-13T11:04:43;18.37;118.99
65559;DHT22;52203;51.998;5.140;2023-07-13T11:07:19;18.03;118.99
65559;DHT22;52203;51.998;5.140;2023-07-13T11:09:52;17.76;118.99
65559;DHT22;52203;51.998;5.140;2023-07-13T11:17:36;16.69;118.99
65559;DHT22;52203;51.998;5.140;2023-07-13T11:25:32;16.93;118.99
65559;DHT22;52203;51.998;5.140;2023-07-13T11:30:38;17.51;118.99
65559;DHT22;52203;51.998;5.140;2023-07-13T11:33:27;17.80;118.99
65559;DHT22;52203;51.998;5.140;2023-07-13T11:38:38;17.46;118.99
65559;DHT22;52203;51.998;5.140;2023-07-13T11:43:33;17.36;118.99
65559;DHT22;52203;51.998;5.140;2023-07-13T11:46:13;17.61;118.99
65559;DHT22;52203;51.998;5.140;2023-07-13T11:48:38;17.87;118.99
65559;DHT22;52203;51.998;5.140;2023-07-13T11:51:06;18.17;118.99
65559;DHT22;52203;51.998;5.140;2023-07-13T11:53:45;18.32;118.99
65559;DHT22;52203;51.998;5.140;2023-07-13T11:56:11;18.51;118.99
65559;DHT22;52203;51.998;5.140;2023-07-13T11:58:38;18.66;118.99
65559;DHT22;52203;51.998;5.140;2023-07-13T12:01:03;18.52;118.99
65559;DHT22;52203;51.998;5.140;2023-07-13T12:03:33;18.22;118.99
65559;DHT22;52203;51.998;5.140;2023-07-13T12:06:05;18.09;118.99
65559;DHT22;52203;51.998;5.140;2023-07-13T12:08:37;17.85;118.99
65559;DHT22;52203;51.998;5.140;2023-07-13T12:11:15;17.72;118.99
65559;DHT22;52203;51.998;5.140;2023-07-13T12:13:41;17.59;118.99
65559;DHT22;52203;51.998;5.140;2023-07-13T12:16:35;17.59;118.99
65559;DHT22;52203;51.998;5.140;2023-07-13T12:19:03;17.55;118.99
65559;DHT22;52203;51.998;5.140;2023-07-13T12:21:38;17.47;118.99
65559;DHT22;52203;51.998;5.140;2023-07-13T12:24:05;17.44;118.99
65559;DHT22;52203;51.998;5.140;2023-07-13T12:26:38;17.31;118.99
65559;DHT22;52203;51.998;5.140;2023-07-13T12:29:06;17.23;118.99
65559;DHT22;52203;51.998;5.140;2023-07-13T12:31:40;17.33;118.99
65559;DHT22;52203;51.998;5.140;2023-07-13T12:34:15;17.62;118.99
65559;DHT22;52203;51.998;5.140;2023-07-13T12:36:58;17.80;118.99
65559;DHT22;52203;51.998;5.140;2023-07-13T12:39:25;17.95;118.99
65559;DHT22;52203;51.998;5.140;2023-07-13T12:41:52;17.94;118.99
65559;DHT22;52203;51.998;5.140;2023-07-13T12:44:29;17.87;118.99
65559;DHT22;52203;51.998;5.140;2023-07-13T12:47:04;18.02;118.99
65559;DHT22;52203;51.998;5.140;2023-07-13T12:49:32;18.26;118.99
65559;DHT22;52203;51.998;5.140;2023-07-13T12:52:09;18.25;118.99
65559;DHT22;52203;51.998;5.140;2023-07-13T12:54:39;18.29;118.99
65559;DHT22;52203;51.998;5.140;2023-07-13T12:57:05;18.35;118.99
65559;DHT22;52203;51.998;5.140;2023-07-13T12:59:34;18.42;118.99
65559;DHT22;52203;51.998;5.140;2023-07-13T13:02:02;18.58;118.99
65559;DHT22;52203;51.998;5.140;2023-07-13T13:04:42;18.58;118.99
65559;DHT22;52203;51.998;5.140;2023-07-13T13:07:09;18.77;118.99
65559;DHT22;52203;51.998;5.140;2023-07-13T13:09:35;18.83;118.99
65559;DHT22;52203;51.998;5.140;2023-07-13T13:12:00;18.81;118.99
65559;DHT22;52203;51.998;5.140;2023-07-13T13:14:26;19.05;118.99
65559;DHT22;52203;51.998;5.140;2023-07-13T13:16:52;18.87;118.99
65559;DHT22;52203;51.998;5.140;2023-07-13T13:19:23;18.95;118.99
65559;DHT22;52203;51.998;5.140;2023-07-13T13:21:50;19.02;118.99
65559;DHT22;52203;51.998;5.140;2023-07-13T13:24:20;18.93;118.99
65559;DHT22;52203;51.998;5.140;2023-07-13T13:26:47;18.96;118.99
65559;DHT22;52203;51.998;5.140;2023-07-13T13:29:14;18.82;118.99
65559;DHT22;52203;51.998;5.140;2023-07-13T13:31:40;18.51;118.99
65559;DHT22;52203;51.998;5.140;2023-07-13T13:34:14;18.47;118.99
65559;DHT22;52203;51.998;5.140;2023-07-13T13:36:41;18.18;118.99
65559;DHT22;52203;51.998;5.140;2023-07-13T13:39:25;17.99;118.99
65559;DHT22;52203;51.998;5.140;2023-07-13T13:41:53;17.96;118.99
65559;DHT22;52203;51.998;5.140;2023-07-13T13:44:20;17.96;118.99
65559;DHT22;52203;51.998;5.140;2023-07-13T13:46:50;18.11;118.99
65559;DHT22;52203;51.998;5.140;2023-07-13T13:49:18;18.14;118.99
65559;DHT22;52203;51.998;5.140;2023-07-13T13:51:45;18.08;118.99
65559;DHT22;52203;51.998;5.140;2023-07-13T13:54:12;18.03;118.99
65559;DHT22;52203;51.998;5.140;2023-07-13T13:56:40;17.81;118.99
65559;DHT22;52203;51.998;5.140;2023-07-13T13:59:06;17.83;118.99
65559;DHT22;52203;51.998;5.140;2023-07-13T14:01:33;17.91;118.99
65559;DHT22;52203;51.998;5.140;2023-07-13T14:03:58;17.99;118.99
65559;DHT22;52203;51.998;5.140;2023-07-13T14:06:24;17.68;118.99
65559;DHT22;52203;51.998;5.140;2023-07-13T14:08:50;17.55;118.99
65559;DHT22;52203;51.998;5.140;2023-07-13T14:11:20;17.58;118.99
65559;DHT22;52203;51.998;5.140;2023-07-13T14:14:05;17.47;118.99
65559;DHT22;52203;51.998;5.140;2023-07-13T14:16:32;17.44;118.99
65559;DHT22;52203;51.998;5.140;2023-07-13T14:18:59;17.41;118.99
65559;DHT22;52203;51.998;5.140;2023-07-13T14:21:27;17.39;118.99
65559;DHT22;52203;51.998;5.140;2023-07-13T14:23:52;17.44;118.99
65559;DHT22;52203;51.998;5.140;2023-07-13T14:26:20;17.44;118.99
65559;DHT22;52203;51.998;5.140;2023-07-13T14:29:10;17.40;118.99
65559;DHT22;52203;51.998;5.140;2023-07-13T14:31:37;17.20;118.99
65559;DHT22;52203;51.998;5.140;2023-07-13T14:34:02;17.19;118.99
65559;DHT22;52203;51.998;5.140;2023-07-13T14:36:30;17.08;118.99
65559;DHT22;52203;51.998;5.140;2023-07-13T14:39:05;17.04;118.99
65559;DHT22;52203;51.998;5.140;2023-07-13T14:41:36;17.07;118.99
65559;DHT22;52203;51.998;5.140;2023-07-13T14:44:10;17.08;118.99
65559;DHT22;52203;51.998;5.140;2023-07-13T14:46:36;17.15;118.99
65559;DHT22;52203;51.998;5.140;2023-07-13T14:49:09;17.11;118.99
65559;DHT22;52203;51.998;5.140;2023-07-13T14:51:37;17.17;118.99
65559;DHT22;52203;51.998;5.140;2023-07-13T14:54:04;17.11;118.99
65559;DHT22;52203;51.998;5.140;2023-07-13T14:56:30;16.98;118.99
65559;DHT22;52203;51.998;5.140;2023-07-13T14:58:56;16.87;118.99
65559;DHT22;52203;51.998;5.140;2023-07-13T15:01:22;16.88;118.99
65559;DHT22;52203;51.998;5.140;2023-07-13T15:03:50;16.78;118.99
65559;DHT22;52203;51.998;5.140;2023-07-13T15:06:16;16.69;118.99
65559;DHT22;52203;51.998;5.140;2023-07-13T15:08:44;16.67;118.99
65559;DHT22;52203;51.998;5.140;2023-07-13T15:11:10;16.58;118.99
65559;DHT22;52203;51.998;5.140;2023-07-13T15:13:37;16.39;118.99
65559;DHT22;52203;51.998;5.140;2023-07-13T15:16:04;16.28;118.99
65559;DHT22;52203;51.998;5.140;2023-07-13T15:18:30;16.33;118.99
65559;DHT22;52203;51.998;5.140;2023-07-13T15:20:56;16.41;118.99
65559;DHT22;52203;51.998;5.140;2023-07-13T15:23:23;16.47;118.99
65559;DHT22;52203;51.998;5.140;2023-07-13T15:25:49;16.32;118.99
65559;DHT22;52203;51.998;5.140;2023-07-13T15:28:15;16.34;118.99
65559;DHT22;52203;51.998;5.140;2023-07-13T15:30:43;16.26;118.99
65559;DHT22;52203;51.998;5.140;2023-07-13T15:33:14;16.27;118.99
65559;DHT22;52203;51.998;5.140;2023-07-13T15:35:42;16.30;118.99
65559;DHT22;52203;51.998;5.140;2023-07-13T15:38:22;16.15;118.99
65559;DHT22;52203;51.998;5.140;2023-07-13T15:40:48;16.21;118.99
65559;DHT22;52203;51.998;5.140;2023-07-13T15:43:15;16.28;118.99
65559;DHT22;52203;51.998;5.140;2023-07-13T15:45:41;16.28;118.99
65559;DHT22;52203;51.998;5.140;2023-07-13T15:48:20;16.29;118.99
65559;DHT22;52203;51.998;5.140;2023-07-13T15:50:48;16.34;118.99
65559;DHT22;52203;51.998;5.140;2023-07-13T15:53:20;16.35;118.99
65559;DHT22;52203;51.998;5.140;2023-07-13T15:55:48;16.34;118.99